地図

経路データ

SID SEASON NUMBER BASIN SUBBASIN NAME ISO_TIME NATURE LAT LON WMO_WIND WMO_PRES WMO_AGENCY TRACK_TYPE DIST2LAND LANDFALL IFLAG USA_AGENCY USA_ATCF_ID USA_LAT USA_LON USA_RECORD USA_STATUS USA_WIND USA_PRES USA_SSHS USA_R34_NE USA_R34_SE USA_R34_SW USA_R34_NW USA_R50_NE USA_R50_SE USA_R50_SW USA_R50_NW USA_R64_NE USA_R64_SE USA_R64_SW USA_R64_NW USA_POCI USA_ROCI USA_RMW USA_EYE TOKYO_LAT TOKYO_LON TOKYO_GRADE TOKYO_WIND TOKYO_PRES TOKYO_R50_DIR TOKYO_R50_LONG TOKYO_R50_SHORT TOKYO_R30_DIR TOKYO_R30_LONG TOKYO_R30_SHORT TOKYO_LAND CMA_LAT CMA_LON CMA_CAT CMA_WIND CMA_PRES HKO_LAT HKO_LON HKO_CAT HKO_WIND HKO_PRES NEWDELHI_LAT NEWDELHI_LON NEWDELHI_GRADE NEWDELHI_WIND NEWDELHI_PRES NEWDELHI_CI NEWDELHI_DP NEWDELHI_POCI REUNION_LAT REUNION_LON REUNION_TYPE REUNION_WIND REUNION_PRES REUNION_TNUM REUNION_CI REUNION_RMW REUNION_R34_NE REUNION_R34_SE REUNION_R34_SW REUNION_R34_NW REUNION_R50_NE REUNION_R50_SE REUNION_R50_SW REUNION_R50_NW REUNION_R64_NE REUNION_R64_SE REUNION_R64_SW REUNION_R64_NW BOM_LAT BOM_LON BOM_TYPE BOM_WIND BOM_PRES BOM_TNUM BOM_CI BOM_RMW BOM_R34_NE BOM_R34_SE BOM_R34_SW BOM_R34_NW BOM_R50_NE BOM_R50_SE BOM_R50_SW BOM_R50_NW BOM_R64_NE BOM_R64_SE BOM_R64_SW BOM_R64_NW BOM_ROCI BOM_POCI BOM_EYE BOM_POS_METHOD BOM_PRES_METHOD NADI_LAT NADI_LON NADI_CAT NADI_WIND NADI_PRES WELLINGTON_LAT WELLINGTON_LON WELLINGTON_WIND WELLINGTON_PRES DS824_LAT DS824_LON DS824_STAGE DS824_WIND DS824_PRES TD9636_LAT TD9636_LON TD9636_STAGE TD9636_WIND TD9636_PRES TD9635_LAT TD9635_LON TD9635_WIND TD9635_PRES TD9635_ROCI NEUMANN_LAT NEUMANN_LON NEUMANN_CLASS NEUMANN_WIND NEUMANN_PRES MLC_LAT MLC_LON MLC_CLASS MLC_WIND MLC_PRES USA_GUST BOM_GUST BOM_GUST_PER REUNION_GUST REUNION_GUST_PER USA_SEAHGT USA_SEARAD_NE USA_SEARAD_SE USA_SEARAD_SW USA_SEARAD_NW STORM_SPEED STORM_DIR
1994313N12278 1994 109 NA CS GORDON 1994-11-08 12:00:00 TS 11.9000 -82.3000 25 1009 hurdat_atl main 142 132 O_____________ hurdat_atl AL121994 11.9000 -82.3000 TD 25 1009 -1 2 288
1994313N12278 1994 109 NA CS GORDON 1994-11-08 15:00:00 TS 11.9275 -82.3875 main 132 117 P_____________ AL121994 11.9275 -82.3875 TD 25 1008 -1 2 297
1994313N12278 1994 109 NA CS GORDON 1994-11-08 18:00:00 TS 12.0000 -82.5000 25 1008 hurdat_atl main 117 103 O_____________ hurdat_atl AL121994 12.0000 -82.5000 TD 25 1008 -1 3 310
1994313N12278 1994 109 NA CS GORDON 1994-11-08 21:00:00 TS 12.1425 -82.6500 main 103 76 P_____________ AL121994 12.1425 -82.6500 TD 27 1007 -1 4 316
1994313N12278 1994 109 NA CS GORDON 1994-11-09 00:00:00 TS 12.3000 -82.8000 30 1007 hurdat_atl main 76 65 O_____________ hurdat_atl AL121994 12.3000 -82.8000 TD 30 1007 -1 4 316
1994313N12278 1994 109 NA CS GORDON 1994-11-09 03:00:00 TS 12.4000 -82.9075 main 65 54 P_____________ AL121994 12.4000 -82.9075 TD 30 1007 -1 3 316
1994313N12278 1994 109 NA CS GORDON 1994-11-09 06:00:00 TS 12.5000 -83.0000 30 1007 hurdat_atl main 54 43 O_____________ hurdat_atl AL121994 12.5000 -83.0000 TD 30 1007 -1 3 321
1994313N12278 1994 109 NA CS GORDON 1994-11-09 09:00:00 TS 12.6350 -83.1000 main 43 32 P_____________ AL121994 12.6350 -83.1000 TD 30 1007 -1 4 327
1994313N12278 1994 109 NA CS GORDON 1994-11-09 12:00:00 TS 12.8000 -83.2000 30 1007 hurdat_atl main 32 21 O_____________ hurdat_atl AL121994 12.8000 -83.2000 TD 30 1007 -1 4 329
1994313N12278 1994 109 NA CS GORDON 1994-11-09 15:00:00 TS 12.9925 -83.3150 main 21 10 P_____________ AL121994 12.9925 -83.3150 TD 30 1007 -1 4 334
1994313N12278 1994 109 NA CS GORDON 1994-11-09 18:00:00 TS 13.2000 -83.4000 30 1007 hurdat_atl main 10 10 O_____________ hurdat_atl AL121994 13.2000 -83.4000 TD 30 1007 -1 4 347
1994313N12278 1994 109 NA CS GORDON 1994-11-09 21:00:00 TS 13.4000 -83.4150 main 10 10 P_____________ AL121994 13.4000 -83.4150 TD 30 1007 -1 4 0
1994313N12278 1994 109 NA CS GORDON 1994-11-10 00:00:00 TS 13.6000 -83.4000 30 1007 hurdat_atl main 10 10 O_____________ hurdat_atl AL121994 13.6000 -83.4000 TD 30 1007 -1 4 0
1994313N12278 1994 109 NA CS GORDON 1994-11-10 03:00:00 TS 13.8075 -83.4150 main 10 0 P_____________ AL121994 13.8075 -83.4150 TD 30 1007 -1 4 0
1994313N12278 1994 109 NA CS GORDON 1994-11-10 06:00:00 TS 14.0000 -83.4000 30 1008 hurdat_atl main 0 0 O_____________ hurdat_atl AL121994 14.0000 -83.4000 L TD 30 1008 -1 4 12
1994313N12278 1994 109 NA CS GORDON 1994-11-10 09:00:00 TS 14.1575 -83.3375 main 0 0 P_____________ AL121994 14.1575 -83.3375 TD 30 1008 -1 4 33
1994313N12278 1994 109 NA CS GORDON 1994-11-10 12:00:00 TS 14.3000 -83.2000 30 1008 hurdat_atl main 0 0 O_____________ hurdat_atl AL121994 14.3000 -83.2000 TD 30 1008 -1 5 53
1994313N12278 1994 109 NA CS GORDON 1994-11-10 15:00:00 TS 14.4351 -82.9575 main 24 24 P_____________ AL121994 14.4351 -82.9575 TD 32 1007 -1 6 58
1994313N12278 1994 109 NA CS GORDON 1994-11-10 18:00:00 TS 14.6000 -82.7000 35 1006 hurdat_atl main 62 58 O_____________ hurdat_atl AL121994 14.6000 -82.7000 TS 35 1006 0 6 47
1994313N12278 1994 109 NA CS GORDON 1994-11-10 21:00:00 TS 14.8275 -82.5200 main 68 64 P_____________ AL121994 14.8275 -82.5200 TS 35 1006 0 6 30
1994313N12278 1994 109 NA CS GORDON 1994-11-11 00:00:00 TS 15.1000 -82.4000 35 1006 hurdat_atl main 76 76 O_____________ hurdat_atl AL121994 15.1000 -82.4000 TS 35 1006 0 6 17
1994313N12278 1994 109 NA CS GORDON 1994-11-11 03:00:00 TS 15.3925 -82.3349 main 96 96 P_____________ AL121994 15.3925 -82.3349 TS 35 1004 0 6 9
1994313N12278 1994 109 NA CS GORDON 1994-11-11 06:00:00 TS 15.7000 -82.3000 35 1003 hurdat_atl main 116 116 O_____________ hurdat_atl AL121994 15.7000 -82.3000 TS 35 1003 0 6 4
1994313N12278 1994 109 NA CS GORDON 1994-11-11 09:00:00 TS 15.9999 -82.2948 main 141 141 P_____________ AL121994 15.9999 -82.2948 TS 35 1004 0 6 9
1994313N12278 1994 109 NA CS GORDON 1994-11-11 12:00:00 TS 16.3000 -82.2000 35 1005 hurdat_atl main 170 170 O_____________ hurdat_atl AL121994 16.3000 -82.2000 TS 35 1005 0 7 32
1994313N12278 1994 109 NA CS GORDON 1994-11-11 15:00:00 TS 16.6226 -81.8952 main 216 216 P_____________ AL121994 16.6226 -81.8952 TS 35 1004 0 9 48
1994313N12278 1994 109 NA CS GORDON 1994-11-11 18:00:00 TS 16.9000 -81.5000 35 1004 hurdat_atl main 270 270 O_____________ hurdat_atl AL121994 16.9000 -81.5000 TS 35 1004 0 9 58
1994313N12278 1994 109 NA CS GORDON 1994-11-11 21:00:00 TS 17.0800 -81.1424 main 311 277 P_____________ AL121994 17.0800 -81.1424 TS 37 1002 0 7 66
1994313N12278 1994 109 NA CS GORDON 1994-11-12 00:00:00 TS 17.2000 -80.8000 40 1000 hurdat_atl main 277 244 O_____________ hurdat_atl AL121994 17.2000 -80.8000 TS 40 1000 0 7 70
1994313N12278 1994 109 NA CS GORDON 1994-11-12 03:00:00 TS 17.3150 -80.4775 main 244 210 P_____________ AL121994 17.3150 -80.4775 TS 40 999 0 6 71
1994313N12278 1994 109 NA CS GORDON 1994-11-12 06:00:00 TS 17.4000 -80.2000 40 999 hurdat_atl main 210 186 O_____________ hurdat_atl AL121994 17.4000 -80.2000 TS 40 999 0 5 71
1994313N12278 1994 109 NA CS GORDON 1994-11-12 09:00:00 TS 17.4724 -80.0000 main 186 167 P_____________ AL121994 17.4724 -80.0000 TS 40 999 0 4 75
1994313N12278 1994 109 NA CS GORDON 1994-11-12 12:00:00 TS 17.5000 -79.8000 40 999 hurdat_atl main 167 149 O_____________ hurdat_atl AL121994 17.5000 -79.8000 TS 40 999 0 4 94
1994313N12278 1994 109 NA CS GORDON 1994-11-12 15:00:00 TS 17.4422 -79.5673 main 155 123 P_____________ AL121994 17.4422 -79.5673 TS 37 999 0 6 100
1994313N12278 1994 109 NA CS GORDON 1994-11-12 18:00:00 TS 17.4000 -79.2000 35 999 hurdat_atl main 123 94 O_____________ hurdat_atl AL121994 17.4000 -79.2000 TS 35 999 0 8 90
1994313N12278 1994 109 NA CS GORDON 1994-11-12 21:00:00 TS 17.4381 -78.6893 main 94 46 P_____________ AL121994 17.4381 -78.6893 TS 35 999 0 13 81
1994313N12278 1994 109 NA CS GORDON 1994-11-13 00:00:00 TS 17.6000 -77.9000 35 999 hurdat_atl main 39 0 O_____________ hurdat_atl AL121994 17.6000 -77.9000 TS 35 999 0 19 76
1994313N12278 1994 109 NA CS GORDON 1994-11-13 03:00:00 TS 17.9000 -76.8000 35 1000 hurdat_atl main 10 0 O_____________ hurdat_atl AL121994 17.9000 -76.8000 L TS 35 1000 0 19 69
1994313N12278 1994 109 NA CS GORDON 1994-11-13 06:00:00 TS 18.3000 -76.0000 40 1001 hurdat_atl main 33 33 O_____________ hurdat_atl AL121994 18.3000 -76.0000 TS 40 1001 0 18 47
1994313N12278 1994 109 NA CS GORDON 1994-11-13 09:00:00 TS 19.1581 -75.4006 main 78 0 P_____________ AL121994 19.1581 -75.4006 TS 40 1000 0 19 31
1994313N12278 1994 109 NA CS GORDON 1994-11-13 12:00:00 TS 19.9000 -75.0000 40 1000 hurdat_atl main 0 0 O_____________ hurdat_atl AL121994 19.9000 -75.0000 TS 40 1000 0 15 29
1994313N12278 1994 109 NA CS GORDON 1994-11-13 13:00:00 TS 20.0000 -74.9000 40 1000 hurdat_atl main 0 0 O_____________ hurdat_atl AL121994 20.0000 -74.9000 L TS 40 1000 0 12 5
1994313N12278 1994 109 NA NA GORDON 1994-11-13 15:00:00 TS 20.5026 -74.9465 main 0 0 P_____________ AL121994 20.5026 -74.9465 TS 40 1000 0 19 343
1994313N12278 1994 109 NA NA GORDON 1994-11-13 18:00:00 TS 21.5000 -75.4000 40 1001 hurdat_atl main 59 59 O_____________ hurdat_atl AL121994 21.5000 -75.4000 TS 40 1001 0 16 330
1994313N12278 1994 109 NA NA GORDON 1994-11-13 21:00:00 TS 21.8986 -75.8041 main 88 84 P_____________ AL121994 21.8986 -75.8041 TS 40 1000 0 10 306
1994313N12278 1994 109 NA NA GORDON 1994-11-14 00:00:00 TS 22.1000 -76.3000 40 999 hurdat_atl main 93 73 O_____________ hurdat_atl AL121994 22.1000 -76.3000 TS 40 999 0 11 296
1994313N12278 1994 109 NA NA GORDON 1994-11-14 03:00:00 TS 22.4078 -76.9073 main 80 78 P_____________ AL121994 22.4078 -76.9073 TS 42 998 0 13 298
1994313N12278 1994 109 NA NA GORDON 1994-11-14 06:00:00 TS 22.7000 -77.5000 45 998 hurdat_atl main 93 84 O_____________ hurdat_atl AL121994 22.7000 -77.5000 TS 45 998 0 11 301
1994313N12278 1994 109 NA NA GORDON 1994-11-14 09:00:00 TS 22.9796 -77.9302 main 93 88 P_____________ AL121994 22.9796 -77.9302 TS 45 997 0 9 304
1994313N12278 1994 109 NA NA GORDON 1994-11-14 12:00:00 TS 23.2000 -78.3000 45 997 hurdat_atl main 101 100 O_____________ hurdat_atl AL121994 23.2000 -78.3000 TS 45 997 0 8 296
1994313N12278 1994 109 NA NA GORDON 1994-11-14 15:00:00 TS 23.3224 -78.7003 main 111 93 P_____________ AL121994 23.3224 -78.7003 TS 45 997 0 8 285
1994313N12278 1994 109 NA NA GORDON 1994-11-14 18:00:00 TS 23.4000 -79.1000 45 998 hurdat_atl main 93 84 O_____________ hurdat_atl AL121994 23.4000 -79.1000 TS 45 998 0 7 283
1994313N12278 1994 109 NA NA GORDON 1994-11-14 21:00:00 TS 23.4923 -79.4927 main 84 73 P_____________ AL121994 23.4923 -79.4927 TS 45 998 0 8 285
1994313N12278 1994 109 NA NA GORDON 1994-11-15 00:00:00 TS 23.6000 -79.9000 45 998 hurdat_atl main 78 78 O_____________ hurdat_atl AL121994 23.6000 -79.9000 TS 45 998 0 8 286
1994313N12278 1994 109 NA NA GORDON 1994-11-15 03:00:00 TS 23.7200 -80.3502 main 78 78 P_____________ AL121994 23.7200 -80.3502 TS 45 998 0 9 290
1994313N12278 1994 109 NA NA GORDON 1994-11-15 06:00:00 TS 23.9000 -80.8000 45 999 hurdat_atl main 100 98 O_____________ hurdat_atl AL121994 23.9000 -80.8000 TS 45 999 0 9 300
1994313N12278 1994 109 NA NA GORDON 1994-11-15 09:00:00 TS 24.1820 -81.2329 main 101 83 P_____________ AL121994 24.1820 -81.2329 TS 45 999 0 9 309
1994313N12278 1994 109 NA NA GORDON 1994-11-15 12:00:00 TS 24.5000 -81.6000 45 999 hurdat_atl main 83 82 O_____________ hurdat_atl AL121994 24.5000 -81.6000 TS 45 999 0 9 315
1994313N12278 1994 109 NA NA GORDON 1994-11-15 13:00:00 TS 24.6000 -81.7000 45 999 hurdat_atl main 82 82 O_____________ hurdat_atl AL121994 24.6000 -81.7000 L TS 45 999 0 7 314
1994313N12278 1994 109 NA GM GORDON 1994-11-15 15:00:00 TS 24.7431 -81.8772 main 89 83 P_____________ AL121994 24.7431 -81.8772 TS 45 998 0 6 310
1994313N12278 1994 109 NA GM GORDON 1994-11-15 18:00:00 TS 24.9000 -82.1000 45 998 hurdat_atl main 96 96 O_____________ hurdat_atl AL121994 24.9000 -82.1000 TS 45 998 0 6 314
1994313N12278 1994 109 NA GM GORDON 1994-11-15 21:00:00 TS 25.1531 -82.3430 main 98 97 P_____________ AL121994 25.1531 -82.3430 TS 45 998 0 6 324
1994313N12278 1994 109 NA GM GORDON 1994-11-16 00:00:00 TS 25.4000 -82.5000 45 998 hurdat_atl main 97 91 O_____________ hurdat_atl AL121994 25.4000 -82.5000 TS 45 998 0 4 338
1994313N12278 1994 109 NA GM GORDON 1994-11-16 03:00:00 TS 25.5349 -82.5100 main 91 73 P_____________ AL121994 25.5349 -82.5100 TS 45 997 0 3 16
1994313N12278 1994 109 NA GM GORDON 1994-11-16 06:00:00 TS 25.7000 -82.4000 45 997 hurdat_atl main 73 51 O_____________ hurdat_atl AL121994 25.7000 -82.4000 TS 45 997 0 6 25
1994313N12278 1994 109 NA GM GORDON 1994-11-16 09:00:00 TS 26.0395 -82.2451 main 41 11 P_____________ AL121994 26.0395 -82.2451 TS 45 996 0 8 27
1994313N12278 1994 109 NA GM GORDON 1994-11-16 12:00:00 TS 26.4000 -82.0000 45 995 hurdat_atl main 11 0 O_____________ hurdat_atl AL121994 26.4000 -82.0000 TS 45 995 0 8 34
1994313N12278 1994 109 NA GM GORDON 1994-11-16 13:00:00 TS 26.5000 -81.9000 45 996 hurdat_atl main 0 0 O_____________ hurdat_atl AL121994 26.5000 -81.9000 L TS 45 996 0 8 37
1994313N12278 1994 109 NA NA GORDON 1994-11-16 15:00:00 TS 26.7189 -81.7290 main 0 0 P_____________ AL121994 26.7189 -81.7290 TS 45 995 0 9 37
1994313N12278 1994 109 NA NA GORDON 1994-11-16 18:00:00 TS 27.1000 -81.4000 45 995 hurdat_atl main 0 0 O_____________ hurdat_atl AL121994 27.1000 -81.4000 TS 45 995 0 12 46
1994313N12278 1994 109 NA NA GORDON 1994-11-16 21:00:00 TS 27.5281 -80.7732 main 0 0 P_____________ AL121994 27.5281 -80.7732 TS 50 994 0 15 54
1994313N12278 1994 109 NA NA GORDON 1994-11-17 00:00:00 TS 28.0000 -80.0000 55 993 hurdat_atl main 50 50 O_____________ hurdat_atl AL121994 28.0000 -80.0000 TS 55 993 0 16 54
1994313N12278 1994 109 NA NA GORDON 1994-11-17 03:00:00 TS 28.4918 -79.2792 main 117 117 P_____________ AL121994 28.4918 -79.2792 TS 55 991 0 17 53
1994313N12278 1994 109 NA NA GORDON 1994-11-17 06:00:00 TS 29.0000 -78.5000 55 989 hurdat_atl main 202 202 O_____________ hurdat_atl AL121994 29.0000 -78.5000 TS 55 989 0 17 56
1994313N12278 1994 109 NA NA GORDON 1994-11-17 09:00:00 TS 29.4622 -77.6282 main 302 302 P_____________ AL121994 29.4622 -77.6282 TS 57 988 0 19 57
1994313N12278 1994 109 NA NA GORDON 1994-11-17 12:00:00 TS 30.0000 -76.7000 60 987 hurdat_atl main 404 404 O_____________ hurdat_atl AL121994 30.0000 -76.7000 TS 60 987 0 21 54
1994313N12278 1994 109 NA NA GORDON 1994-11-17 15:00:00 TS 30.7061 -75.6620 main 417 390 P_____________ AL121994 30.7061 -75.6620 TS 62 984 0 22 47
1994313N12278 1994 109 NA NA GORDON 1994-11-17 18:00:00 TS 31.5000 -74.8000 65 981 hurdat_atl main 390 330 O_____________ hurdat_atl AL121994 31.5000 -74.8000 HU 65 981 1 20 34
1994313N12278 1994 109 NA NA GORDON 1994-11-17 21:00:00 TS 32.3813 -74.3191 main 327 276 P_____________ AL121994 32.3813 -74.3191 HU 70 980 1 17 18
1994313N12278 1994 109 NA NA GORDON 1994-11-18 00:00:00 TS 33.1000 -74.2000 75 980 hurdat_atl main 276 248 O_____________ hurdat_atl AL121994 33.1000 -74.2000 HU 75 980 1 10 0
1994313N12278 1994 109 NA NA GORDON 1994-11-18 03:00:00 TS 33.4047 -74.3291 main 248 212 P_____________ AL121994 33.4047 -74.3291 HU 72 980 1 6 314
1994313N12278 1994 109 NA NA GORDON 1994-11-18 06:00:00 TS 33.5000 -74.7000 70 981 hurdat_atl main 212 163 O_____________ hurdat_atl AL121994 33.5000 -74.7000 HU 70 981 1 8 290
1994313N12278 1994 109 NA NA GORDON 1994-11-18 09:00:00 TS 33.6682 -75.2220 main 163 133 P_____________ AL121994 33.6682 -75.2220 HU 70 982 1 9 284
1994313N12278 1994 109 NA NA GORDON 1994-11-18 12:00:00 TS 33.7000 -75.7000 70 984 hurdat_atl main 133 128 O_____________ hurdat_atl AL121994 33.7000 -75.7000 HU 70 984 1 6 255
1994313N12278 1994 109 NA NA GORDON 1994-11-18 15:00:00 TS 33.5171 -75.9056 main 144 144 P_____________ AL121994 33.5171 -75.9056 HU 65 985 1 5 199
1994313N12278 1994 109 NA NA GORDON 1994-11-18 18:00:00 TS 33.2000 -75.9000 60 986 hurdat_atl main 176 176 O_____________ hurdat_atl AL121994 33.2000 -75.9000 TS 60 986 0 7 169
1994313N12278 1994 109 NA NA GORDON 1994-11-18 21:00:00 TS 32.8800 -75.7523 main 210 210 P_____________ AL121994 32.8800 -75.7523 TS 55 989 0 8 154
1994313N12278 1994 109 NA NA GORDON 1994-11-19 00:00:00 TS 32.5000 -75.5000 50 992 hurdat_atl main 262 262 O_____________ hurdat_atl AL121994 32.5000 -75.5000 TS 50 992 0 10 153
1994313N12278 1994 109 NA NA GORDON 1994-11-19 03:00:00 TS 32.0351 -75.2346 main 324 324 P_____________ AL121994 32.0351 -75.2346 TS 47 994 0 10 155
1994313N12278 1994 109 NA NA GORDON 1994-11-19 06:00:00 TS 31.6000 -75.0000 45 996 hurdat_atl main 372 372 O_____________ hurdat_atl AL121994 31.6000 -75.0000 TS 45 996 0 8 155
1994313N12278 1994 109 NA NA GORDON 1994-11-19 09:00:00 TS 31.3349 -74.8477 main 410 410 P_____________ AL121994 31.3349 -74.8477 TS 42 998 0 5 161
1994313N12278 1994 109 NA NA GORDON 1994-11-19 12:00:00 TS 31.1000 -74.8000 40 1000 hurdat_atl main 431 431 O_____________ hurdat_atl AL121994 31.1000 -74.8000 TS 40 1000 0 6 0
1994313N12278 1994 109 NA NA GORDON 1994-11-19 15:00:00 TS 30.7575 -74.8627 main 451 451 P_____________ AL121994 30.7575 -74.8627 TS 37 1002 0 7 194
1994313N12278 1994 109 NA NA GORDON 1994-11-19 18:00:00 TS 30.4000 -75.0000 35 1005 hurdat_atl main 481 481 O_____________ hurdat_atl AL121994 30.4000 -75.0000 TS 35 1005 0 7 197
1994313N12278 1994 109 NA NA GORDON 1994-11-19 21:00:00 TS 30.1147 -75.0968 main 504 504 P_____________ AL121994 30.1147 -75.0968 TS 35 1006 0 7 203
1994313N12278 1994 109 NA NA GORDON 1994-11-20 00:00:00 TS 29.8000 -75.3000 35 1007 hurdat_atl main 523 477 O_____________ hurdat_atl AL121994 29.8000 -75.3000 TS 35 1007 0 9 214
1994313N12278 1994 109 NA NA GORDON 1994-11-20 03:00:00 TS 29.3426 -75.6982 main 475 421 P_____________ AL121994 29.3426 -75.6982 TS 32 1007 -1 12 221
1994313N12278 1994 109 NA NA GORDON 1994-11-20 06:00:00 TS 28.9000 -76.2000 30 1008 hurdat_atl main 421 380 O_____________ hurdat_atl AL121994 28.9000 -76.2000 TD 30 1008 -1 11 229
1994313N12278 1994 109 NA NA GORDON 1994-11-20 09:00:00 TS 28.5970 -76.6621 main 370 322 P_____________ AL121994 28.5970 -76.6621 TD 30 1008 -1 10 240
1994313N12278 1994 109 NA NA GORDON 1994-11-20 12:00:00 TS 28.4000 -77.2000 30 1009 hurdat_atl main 322 264 O_____________ hurdat_atl AL121994 28.4000 -77.2000 TD 30 1009 -1 11 253
1994313N12278 1994 109 NA NA GORDON 1994-11-20 15:00:00 TS 28.2628 -77.8849 main 254 188 P_____________ AL121994 28.2628 -77.8849 TD 27 1009 -1 12 261
1994313N12278 1994 109 NA NA GORDON 1994-11-20 18:00:00 TS 28.2000 -78.6000 25 1009 hurdat_atl main 188 139 O_____________ hurdat_atl AL121994 28.2000 -78.6000 TD 25 1009 -1 11 263
1994313N12278 1994 109 NA NA GORDON 1994-11-20 21:00:00 TS 28.1242 -79.1733 main 129 76 P_____________ AL121994 28.1242 -79.1733 TD 25 1009 -1 11 270
1994313N12278 1994 109 NA NA GORDON 1994-11-21 00:00:00 TS 28.2000 -79.8000 25 1010 hurdat_atl main 76 0 O_____________ hurdat_atl AL121994 28.2000 -79.8000 TD 25 1010 -1 13 287
1994313N12278 1994 109 NA NA GORDON 1994-11-21 03:00:00 TS 28.5000 -80.6000 25 1011 hurdat_atl main 0 0 O_____________ hurdat_atl AL121994 28.5000 -80.6000 L TD 25 1011 -1 18 304
1994313N12278 1994 109 NA NA GORDON 1994-11-21 06:00:00 TS 29.2000 -81.5000 20 1012 hurdat_atl main 0 0 O_____________ hurdat_atl AL121994 29.2000 -81.5000 TD 20 1012 -1 20 324
1994313N12278 1994 109 NA NA GORDON 1994-11-21 09:00:00 TS 30.1289 -81.9563 main 0 0 P_____________ AL121994 30.1289 -81.9563 TD 20 1012 -1 21 353
1994313N12278 1994 109 NA NA GORDON 1994-11-21 12:00:00 TS 31.3000 -81.8000 20 1013 hurdat_atl main 0 0 O_____________ hurdat_atl AL121994 31.3000 -81.8000 TD 20 1013 -1 27 18
1994313N12278 1994 109 NA NA GORDON 1994-11-21 15:00:00 TS 32.6561 -80.9958 main 0 0 P_____________ AL121994 32.6561 -80.9958 TD 20 1013 -1 33 31
1994313N12278 1994 109 NA NA GORDON 1994-11-21 18:00:00 TS 34.1000 -79.8000 20 1013 hurdat_atl main 0 O_____________ hurdat_atl AL121994 34.1000 -79.8000 TD 20 1013 -1 35 34

IBTrACS Databaseについて

本データベースは、米国NOAAが公開する1842年以降の世界の熱帯低気圧のベストトラックデータアーカイブInternational Best Track Archive for Climate Stewardship (IBTrACS)を、ウェブで閲覧しやすい形式に変換したものです。

最終更新日:2021-10-21